createdAt,value
2022-11-15T00:00:30.404Z,7.15
2022-11-15T00:03:18.834Z,6.88
2022-11-15T00:06:09.813Z,6.00
2022-11-15T00:09:00.366Z,14.60
2022-11-15T00:16:51.512Z,7.50
2022-11-15T00:19:40.222Z,8.02
2022-11-15T00:22:34.651Z,7.50
2022-11-15T00:25:23.397Z,8.07
2022-11-15T00:28:10.838Z,8.15
2022-11-15T00:31:03.923Z,6.75
2022-11-15T00:33:51.577Z,8.07
2022-11-15T00:36:48.336Z,8.10
2022-11-15T00:39:35.534Z,7.10
2022-11-15T00:42:24.331Z,7.95
2022-11-15T00:45:12.335Z,6.43
2022-11-15T00:47:59.997Z,7.32
2022-11-15T00:50:47.248Z,8.32
2022-11-15T00:53:34.890Z,10.00
2022-11-15T00:56:22.598Z,7.80
2022-11-15T00:59:11.128Z,6.95
2022-11-15T01:01:58.530Z,5.88
2022-11-15T01:04:46.312Z,6.05
2022-11-15T01:07:34.116Z,7.15
2022-11-15T01:10:21.748Z,5.85
2022-11-15T01:13:09.754Z,6.82
2022-11-15T01:16:01.747Z,6.05
2022-11-15T01:18:49.373Z,6.72
2022-11-15T01:21:36.877Z,6.85
2022-11-15T01:24:24.252Z,7.22
2022-11-15T01:27:12.045Z,8.10
2022-11-15T01:29:59.639Z,5.63
2022-11-15T01:32:48.406Z,6.05
2022-11-15T01:35:40.603Z,7.97
2022-11-15T01:38:28.024Z,5.65
2022-11-15T01:41:22.149Z,7.63
2022-11-15T01:44:42.553Z,5.32
2022-11-15T01:47:35.412Z,5.80
2022-11-15T01:50:30.524Z,8.27
2022-11-15T01:53:19.466Z,8.05
2022-11-15T01:56:11.478Z,5.80
2022-11-15T01:59:03.396Z,8.30
2022-11-15T02:01:51.772Z,6.53
2022-11-15T02:04:44.129Z,7.15
2022-11-15T02:07:36.200Z,7.47
2022-11-15T02:10:26.868Z,7.72
2022-11-15T02:13:15.382Z,6.80
2022-11-15T02:16:13.909Z,6.22
2022-11-15T02:19:15.973Z,5.03
2022-11-15T02:22:24.068Z,7.82
2022-11-15T02:25:40.514Z,6.70
2022-11-15T02:28:51.410Z,6.55
2022-11-15T02:31:50.491Z,5.78
2022-11-15T02:34:52.750Z,6.22
2022-11-15T02:38:05.175Z,5.50
2022-11-15T02:41:02.280Z,5.65
2022-11-15T02:43:57.616Z,6.57
2022-11-15T02:47:09.526Z,6.47
2022-11-15T02:50:05.192Z,6.93
2022-11-15T02:53:02.215Z,7.85
2022-11-15T02:55:53.211Z,5.63
2022-11-15T02:59:07.665Z,5.32
2022-11-15T03:02:20.817Z,6.80
2022-11-15T03:05:26.062Z,5.47
2022-11-15T03:08:28.268Z,8.73
2022-11-15T03:11:19.753Z,5.93
2022-11-15T03:14:23.507Z,5.63
2022-11-15T03:17:21.356Z,7.65
2022-11-15T03:20:14.510Z,6.07
2022-11-15T03:25:56.998Z,5.97
2022-11-15T03:28:52.233Z,5.50
2022-11-15T03:31:50.879Z,7.05
2022-11-15T03:34:47.184Z,6.60
2022-11-15T03:37:41.907Z,6.25
2022-11-15T03:40:39.022Z,8.13
2022-11-15T03:43:38.283Z,6.57
2022-11-15T03:46:33.779Z,7.85
2022-11-15T03:49:30.554Z,5.95
2022-11-15T03:52:23.039Z,6.32
2022-11-15T03:55:17.035Z,7.07
2022-11-15T03:58:04.750Z,6.80
2022-11-15T04:00:52.177Z,6.57
2022-11-15T04:03:39.661Z,6.10
2022-11-15T04:06:27.061Z,6.18
2022-11-15T04:09:15.936Z,6.82
2022-11-15T04:12:03.571Z,8.73
2022-11-15T04:15:08.125Z,5.47
2022-11-15T04:17:58.808Z,7.55
2022-11-15T04:21:03.874Z,5.85
2022-11-15T04:24:08.884Z,6.28
2022-11-15T04:26:57.438Z,8.23
2022-11-15T04:29:44.732Z,8.15
2022-11-15T04:32:32.087Z,7.22
2022-11-15T04:35:19.643Z,5.55
2022-11-15T04:38:10.308Z,6.65
2022-11-15T04:40:58.097Z,6.97
2022-11-15T04:43:47.366Z,9.32
2022-11-15T04:46:35.025Z,8.48
2022-11-15T04:49:22.672Z,5.80
2022-11-15T04:52:10.044Z,7.03
2022-11-15T04:54:57.505Z,5.40
2022-11-15T04:57:45.175Z,9.00
2022-11-15T05:00:33.866Z,6.15
2022-11-15T05:03:38.820Z,8.23
2022-11-15T05:06:26.308Z,7.15
2022-11-15T05:09:14.974Z,5.57
2022-11-15T05:12:02.457Z,6.82
2022-11-15T05:14:49.950Z,8.00
2022-11-15T05:17:38.747Z,7.32
2022-11-15T05:20:26.180Z,7.57
2022-11-15T05:23:13.680Z,8.38
2022-11-15T05:26:06.398Z,6.95
2022-11-15T05:28:58.790Z,6.05
2022-11-15T05:31:46.353Z,9.63
2022-11-15T05:34:35.087Z,6.88
2022-11-15T05:37:22.863Z,7.68
2022-11-15T05:40:11.254Z,7.35
2022-11-15T05:43:02.242Z,6.22
2022-11-15T05:45:49.885Z,6.55
2022-11-15T05:48:43.342Z,7.15
2022-11-15T05:51:32.463Z,7.05
2022-11-15T05:54:23.167Z,9.13
2022-11-15T05:57:10.828Z,7.57
2022-11-15T05:59:58.670Z,7.13
2022-11-15T06:02:46.248Z,7.20
2022-11-15T06:05:33.559Z,7.70
2022-11-15T06:08:22.342Z,7.07
2022-11-15T06:11:10.177Z,6.93
2022-11-15T06:13:58.849Z,6.60
2022-11-15T06:16:46.574Z,8.18
2022-11-15T06:19:34.468Z,6.03
2022-11-15T06:22:22.972Z,6.20
2022-11-15T06:25:12.082Z,8.23
2022-11-15T06:28:01.420Z,8.98
2022-11-15T06:30:53.057Z,5.25
2022-11-15T06:33:41.395Z,8.05
2022-11-15T06:36:28.906Z,5.88
2022-11-15T06:39:16.342Z,9.68
2022-11-15T06:42:05.312Z,6.70
2022-11-15T06:44:52.880Z,8.27
2022-11-15T06:47:47.771Z,6.95
2022-11-15T06:50:35.553Z,9.13
2022-11-15T06:53:23.255Z,9.50
2022-11-15T06:56:11.149Z,6.30
2022-11-15T06:59:00.159Z,7.82
2022-11-15T07:01:47.864Z,6.10
2022-11-15T07:04:37.350Z,7.30
2022-11-15T07:07:24.989Z,8.38
2022-11-15T07:10:12.673Z,8.27
2022-11-15T07:13:00.372Z,6.28
2022-11-15T07:15:49.239Z,9.40
2022-11-15T07:18:38.564Z,14.52
2022-11-15T07:21:27.818Z,7.85
2022-11-15T07:24:15.444Z,8.43
2022-11-15T07:27:02.942Z,8.32
2022-11-15T07:29:50.644Z,14.07
2022-11-15T07:32:39.481Z,9.75
2022-11-15T07:35:29.357Z,22.50
2022-11-15T07:38:20.457Z,23.38
2022-11-15T07:41:08.922Z,24.10
2022-11-15T07:43:56.453Z,18.90
2022-11-15T07:46:44.075Z,18.90
2022-11-15T07:49:32.964Z,13.38
2022-11-15T07:52:20.662Z,15.27
2022-11-15T07:55:09.834Z,13.25
2022-11-15T07:58:03.776Z,15.65
2022-11-15T08:00:51.424Z,12.20
2022-11-15T08:03:39.726Z,15.23
2022-11-15T08:06:28.439Z,12.77
2022-11-15T08:09:16.135Z,12.25
2022-11-15T08:12:03.617Z,15.93
2022-11-15T08:14:51.392Z,15.50
2022-11-15T08:17:38.932Z,15.45
2022-11-15T08:20:30.576Z,14.75
2022-11-15T08:23:19.761Z,14.98
2022-11-15T08:26:07.396Z,15.25
2022-11-15T08:28:55.150Z,14.70
2022-11-15T08:31:42.628Z,16.63
2022-11-15T08:34:30.374Z,15.98
2022-11-15T08:37:17.816Z,16.02
2022-11-15T08:40:08.700Z,15.27
2022-11-15T08:42:56.047Z,17.30
2022-11-15T08:45:43.518Z,13.90
2022-11-15T08:48:32.367Z,16.52
2022-11-15T08:51:21.095Z,15.90
2022-11-15T08:54:08.926Z,17.90
2022-11-15T08:56:57.843Z,17.05
2022-11-15T08:59:45.655Z,13.93
2022-11-15T09:02:33.588Z,19.10
2022-11-15T09:05:20.901Z,14.98
2022-11-15T09:08:25.670Z,17.08
2022-11-15T09:11:17.359Z,15.73
2022-11-15T09:14:06.340Z,15.23
2022-11-15T09:16:53.964Z,15.93
2022-11-15T09:19:41.373Z,14.77
2022-11-15T09:22:29.565Z,17.15
2022-11-15T09:25:17.123Z,14.70
2022-11-15T09:28:08.723Z,15.05
2022-11-15T09:31:00.847Z,11.63
2022-11-15T09:33:48.842Z,11.80
2022-11-15T09:36:37.114Z,13.00
2022-11-15T09:39:24.537Z,13.52
2022-11-15T09:42:47.803Z,16.15
2022-11-15T09:45:49.482Z,26.02
2022-11-15T09:48:54.601Z,14.30
2022-11-15T09:51:48.550Z,14.27
2022-11-15T09:54:53.513Z,17.08
2022-11-15T09:57:55.858Z,13.40
2022-11-15T10:00:53.212Z,12.52
2022-11-15T10:03:46.537Z,11.25
2022-11-15T10:06:39.276Z,13.48
2022-11-15T10:09:35.144Z,11.77
2022-11-15T10:12:23.042Z,11.98
2022-11-15T10:15:20.307Z,12.45
2022-11-15T10:18:17.045Z,9.23
2022-11-15T10:21:21.676Z,11.15
2022-11-15T10:24:14.619Z,9.20
2022-11-15T10:29:52.489Z,10.65
2022-11-15T10:32:42.790Z,9.70
2022-11-15T10:35:32.468Z,9.15
2022-11-15T10:38:21.534Z,9.05
2022-11-15T10:41:10.310Z,10.00
2022-11-15T10:44:23.336Z,10.32
2022-11-15T10:50:33.092Z,8.00
2022-11-15T10:53:39.510Z,9.30
2022-11-15T10:56:28.807Z,8.30
2022-11-15T10:59:28.509Z,7.15
2022-11-15T11:02:59.768Z,8.63
2022-11-15T11:05:47.304Z,8.80
2022-11-15T11:08:36.570Z,8.07
2022-11-15T11:11:24.990Z,8.02
2022-11-15T11:14:15.300Z,8.45
2022-11-15T11:17:13.282Z,10.95
2022-11-15T11:20:12.493Z,7.65
2022-11-15T11:23:18.917Z,6.47
2022-11-15T11:26:28.085Z,9.95
2022-11-15T11:29:35.624Z,8.85
2022-11-15T11:32:55.546Z,6.68
2022-11-15T11:35:57.408Z,6.35
2022-11-15T11:39:08.113Z,6.90
2022-11-15T11:42:11.667Z,8.27
2022-11-15T11:45:20.615Z,9.05
2022-11-15T11:48:16.078Z,6.45
2022-11-15T11:51:14.397Z,6.97
2022-11-15T11:54:13.194Z,5.90
2022-11-15T11:57:07.637Z,7.07
2022-11-15T12:00:05.409Z,5.50
2022-11-15T12:03:09.930Z,6.38
2022-11-15T12:06:03.365Z,7.90
2022-11-15T12:09:04.229Z,6.80
2022-11-15T12:12:01.309Z,5.45
2022-11-15T12:14:57.702Z,6.13
2022-11-15T12:17:46.638Z,5.82
2022-11-15T12:20:41.305Z,6.00
2022-11-15T12:23:33.768Z,6.47
2022-11-15T12:26:25.864Z,6.07
2022-11-15T12:29:18.694Z,6.70
2022-11-15T12:32:18.156Z,5.75
2022-11-15T12:35:22.328Z,5.63
2022-11-15T12:38:13.516Z,5.72
2022-11-15T12:41:17.932Z,6.05
2022-11-15T12:44:12.155Z,5.95
2022-11-15T12:47:25.689Z,7.82
2022-11-15T12:50:15.817Z,6.72
2022-11-15T12:53:32.502Z,8.52
2022-11-15T12:56:25.272Z,4.63
2022-11-15T13:02:02.497Z,3.92
2022-11-15T13:04:51.907Z,5.18
2022-11-15T13:07:58.840Z,5.88
2022-11-15T13:10:47.035Z,6.03
2022-11-15T13:13:45.755Z,5.57
2022-11-15T13:16:33.772Z,6.13
2022-11-15T13:19:25.176Z,5.35
2022-11-15T13:22:32.318Z,6.45
2022-11-15T13:25:30.001Z,5.00
2022-11-15T13:28:33.370Z,5.88
2022-11-15T13:31:32.316Z,4.78
2022-11-15T13:34:50.553Z,5.97
2022-11-15T13:37:37.554Z,4.68
2022-11-15T13:40:31.473Z,4.47
2022-11-15T13:43:31.730Z,8.13
2022-11-15T13:46:21.528Z,3.90
2022-11-15T13:49:13.010Z,4.63
2022-11-15T13:52:03.310Z,6.90
2022-11-15T13:54:59.553Z,4.80
2022-11-15T13:57:49.313Z,4.63
2022-11-15T14:00:41.104Z,5.47
2022-11-15T14:03:30.614Z,4.07
2022-11-15T14:06:21.769Z,5.75
2022-11-15T14:09:35.366Z,6.07
2022-11-15T14:12:31.252Z,4.78
2022-11-15T14:15:30.532Z,6.13
2022-11-15T14:18:43.603Z,7.50
2022-11-15T14:21:32.021Z,5.97
2022-11-15T14:24:21.178Z,5.65
2022-11-15T14:27:30.425Z,4.47
2022-11-15T14:30:18.988Z,6.35
2022-11-15T14:33:23.659Z,4.95
2022-11-15T14:36:15.726Z,4.90
2022-11-15T14:39:06.180Z,4.70
2022-11-15T14:41:54.028Z,4.80
2022-11-15T14:44:46.174Z,4.40
2022-11-15T14:47:34.126Z,5.63
2022-11-15T14:50:23.636Z,5.40
2022-11-15T14:53:15.557Z,5.43
2022-11-15T14:56:03.120Z,5.70
2022-11-15T14:58:51.192Z,5.32
2022-11-15T15:01:40.620Z,4.35
2022-11-15T15:04:28.575Z,4.35
2022-11-15T15:07:16.675Z,4.18
2022-11-15T15:10:37.557Z,5.03
2022-11-15T15:13:19.638Z,4.40
2022-11-15T15:16:07.756Z,5.60
2022-11-15T15:18:56.973Z,4.70
2022-11-15T15:21:44.688Z,4.38
2022-11-15T15:24:32.767Z,6.22
2022-11-15T15:27:20.635Z,5.07
2022-11-15T15:30:09.819Z,4.63
2022-11-15T15:32:58.196Z,4.72
2022-11-15T15:35:47.242Z,4.53
2022-11-15T15:38:35.655Z,5.18
2022-11-15T15:41:23.786Z,6.03
2022-11-15T15:44:11.862Z,8.65
2022-11-15T15:47:00.220Z,9.05
2022-11-15T15:49:48.682Z,8.00
2022-11-15T15:52:37.893Z,7.07
2022-11-15T15:55:26.371Z,4.50
2022-11-15T15:58:14.187Z,4.30
2022-11-15T16:01:02.493Z,5.40
2022-11-15T16:03:50.642Z,5.68
2022-11-15T16:06:43.155Z,6.03
2022-11-15T16:09:50.046Z,6.07
2022-11-15T16:12:37.909Z,5.00
2022-11-15T16:15:27.048Z,6.18
2022-11-15T16:18:20.640Z,6.82
2022-11-15T16:21:09.607Z,5.25
2022-11-15T16:23:57.548Z,5.20
2022-11-15T16:26:47.419Z,5.75
2022-11-15T16:29:35.039Z,8.48
2022-11-15T16:32:23.887Z,5.88
2022-11-15T16:35:14.374Z,7.03
2022-11-15T16:38:02.461Z,8.18
2022-11-15T16:40:50.603Z,7.25
2022-11-15T16:43:39.539Z,6.43
2022-11-15T16:46:29.187Z,6.18
2022-11-15T16:49:17.329Z,7.38
2022-11-15T16:52:05.253Z,5.75
2022-11-15T16:54:54.024Z,7.72
2022-11-15T16:57:41.919Z,6.22
2022-11-15T17:00:31.335Z,6.32
2022-11-15T17:03:19.558Z,5.57
2022-11-15T17:06:09.560Z,5.70
2022-11-15T17:08:57.385Z,5.25
2022-11-15T17:11:45.477Z,6.47
2022-11-15T17:14:33.525Z,13.00
2022-11-15T17:17:22.799Z,8.75
2022-11-15T17:20:17.267Z,6.65
2022-11-15T17:23:12.123Z,8.70
2022-11-15T17:26:17.873Z,7.70
2022-11-15T17:29:08.881Z,6.85
2022-11-15T17:31:56.567Z,6.10
2022-11-15T17:34:45.741Z,6.85
2022-11-15T17:37:33.777Z,7.65
2022-11-15T17:40:21.703Z,9.38
2022-11-15T17:43:09.731Z,9.23
2022-11-15T17:45:57.794Z,8.23
2022-11-15T17:48:45.829Z,9.05
2022-11-15T17:51:35.185Z,9.45
2022-11-15T17:54:22.930Z,12.05
2022-11-15T17:57:11.275Z,11.15
2022-11-15T17:59:59.120Z,10.10
2022-11-15T18:02:46.908Z,12.70
2022-11-15T18:05:34.764Z,10.38
2022-11-15T18:08:24.275Z,20.52
2022-11-15T18:11:14.380Z,19.13
2022-11-15T18:14:04.379Z,14.48
2022-11-15T18:16:52.177Z,16.27
2022-11-15T18:19:40.596Z,13.10
2022-11-15T18:22:28.655Z,12.98
2022-11-15T18:25:18.359Z,10.27
2022-11-15T18:28:06.165Z,11.25
2022-11-15T18:30:53.811Z,11.57
2022-11-15T18:33:42.875Z,11.48
2022-11-15T18:36:32.183Z,15.77
2022-11-15T18:39:20.383Z,11.95
2022-11-15T18:42:09.532Z,13.82
2022-11-15T18:44:57.313Z,11.00
2022-11-15T18:47:45.416Z,10.82
2022-11-15T18:50:33.496Z,13.30
2022-11-15T18:53:21.359Z,9.38
2022-11-15T18:56:12.096Z,12.93
2022-11-15T18:59:03.111Z,10.05
2022-11-15T19:01:52.124Z,7.93
2022-11-15T19:04:40.190Z,12.50
2022-11-15T19:07:28.158Z,12.85
2022-11-15T19:10:16.391Z,8.93
2022-11-15T19:13:04.101Z,10.55
2022-11-15T19:16:00.559Z,11.60
2022-11-15T19:18:48.945Z,8.15
2022-11-15T19:21:36.928Z,11.18
2022-11-15T19:24:26.329Z,12.57
2022-11-15T19:27:14.146Z,11.13
2022-11-15T19:30:02.026Z,8.32
2022-11-15T19:32:51.255Z,10.18
2022-11-15T19:35:39.288Z,10.75
2022-11-15T19:38:27.462Z,9.10
2022-11-15T19:41:17.381Z,9.32
2022-11-15T19:44:05.590Z,8.60
2022-11-15T19:46:53.469Z,7.32
2022-11-15T19:49:43.579Z,9.07
2022-11-15T19:52:31.455Z,9.10
2022-11-15T19:55:19.300Z,10.38
2022-11-15T19:58:06.965Z,10.38
2022-11-15T20:01:00.623Z,15.07
2022-11-15T20:03:50.191Z,10.25
2022-11-15T20:06:41.808Z,9.55
2022-11-15T20:09:29.852Z,9.10
2022-11-15T20:12:17.579Z,9.82
2022-11-15T20:15:06.174Z,11.40
2022-11-15T20:17:53.947Z,10.65
2022-11-15T20:20:41.966Z,10.32
2022-11-15T20:23:32.120Z,10.82
2022-11-15T20:26:23.530Z,11.23
2022-11-15T20:29:11.597Z,10.18
2022-11-15T20:31:59.255Z,10.85
2022-11-15T20:34:52.897Z,12.57
2022-11-15T20:37:41.852Z,13.40
2022-11-15T20:40:31.354Z,12.63
2022-11-15T20:43:21.533Z,14.15
2022-11-15T20:46:09.352Z,15.40
2022-11-15T20:48:57.081Z,11.65
2022-11-15T20:51:45.385Z,11.13
2022-11-15T20:54:33.410Z,10.60
2022-11-15T20:57:22.818Z,10.07
2022-11-15T21:00:12.208Z,9.70
2022-11-15T21:02:59.823Z,10.13
2022-11-15T21:05:48.461Z,12.50
2022-11-15T21:08:50.295Z,10.88
2022-11-15T21:11:56.132Z,11.50
2022-11-15T21:14:48.127Z,11.73
2022-11-15T21:17:36.247Z,10.60
2022-11-15T21:20:25.319Z,11.30
2022-11-15T21:23:14.398Z,11.43
2022-11-15T21:26:02.304Z,15.20
2022-11-15T21:28:50.949Z,11.07
2022-11-15T21:31:40.439Z,13.57
2022-11-15T21:34:28.576Z,12.25
2022-11-15T21:37:16.429Z,12.48
2022-11-15T21:40:04.919Z,12.65
2022-11-15T21:42:53.161Z,12.65
2022-11-15T21:45:42.949Z,10.32
2022-11-15T21:48:34.113Z,11.57
2022-11-15T21:51:22.106Z,12.18
2022-11-15T21:54:10.462Z,10.75
2022-11-15T21:56:58.601Z,12.43
2022-11-15T22:00:04.173Z,11.43
2022-11-15T22:02:52.286Z,13.00
2022-11-15T22:05:44.794Z,10.18
2022-11-15T22:08:33.141Z,11.32
2022-11-15T22:11:21.868Z,13.23
2022-11-15T22:14:09.945Z,12.15
2022-11-15T22:16:58.359Z,12.98
2022-11-15T22:19:52.520Z,15.90
2022-11-15T22:22:42.799Z,11.68
2022-11-15T22:25:30.646Z,12.13
2022-11-15T22:28:20.358Z,10.65
2022-11-15T22:31:08.561Z,11.73
2022-11-15T22:33:56.576Z,12.25
2022-11-15T22:37:13.009Z,10.90
2022-11-15T22:39:54.978Z,13.27
2022-11-15T22:42:43.198Z,13.20
2022-11-15T22:45:31.401Z,11.30
2022-11-15T22:48:20.379Z,15.27
2022-11-15T22:51:09.286Z,10.73
2022-11-15T22:53:57.026Z,15.52
2022-11-15T22:56:46.583Z,11.52
2022-11-15T22:59:35.845Z,13.15
2022-11-15T23:02:24.340Z,11.82
2022-11-15T23:05:12.431Z,12.77
2022-11-15T23:08:00.456Z,9.85
2022-11-15T23:11:05.680Z,12.27
2022-11-15T23:13:54.913Z,11.43
2022-11-15T23:16:43.158Z,11.07
2022-11-15T23:19:31.278Z,9.98
2022-11-15T23:22:36.586Z,8.82
2022-11-15T23:25:24.346Z,9.80
2022-11-15T23:28:12.343Z,9.82
2022-11-15T23:31:24.346Z,9.80
2022-11-15T23:34:12.841Z,11.23
2022-11-15T23:37:01.186Z,10.45
2022-11-15T23:39:49.050Z,8.43
2022-11-15T23:42:37.195Z,9.63
2022-11-15T23:45:24.980Z,10.30
2022-11-15T23:48:14.163Z,9.25
2022-11-15T23:51:02.554Z,10.13
2022-11-15T23:53:50.570Z,9.52
2022-11-15T23:56:38.540Z,8.95
2022-11-15T23:59:26.802Z,8.55
